Flight Track Log - Related Links

Times and Time Zones

All times are in EDT time to prevent confusion due to time zone crossing. See the UPS614 flight status page for this flight to view local times or setup timezone preferences in your user account.

Time Position Orientation Groundspeed Altitude Reporting Facility
EDT Latitude Longitude Course Direction KTS MPH feet Rate Location/Type
Wed 06:08:55 AM 39.8125 -82.9347 295° West 161 185 1,400  Level Indianapolis Center
Wed 06:14:33 AM 39.9970 -83.4660 306° West 420 483 18,900 2,742 Climbing FlightAware ADS-B
Wed 06:15:18 AM 40.0450 -83.5520 306° West 420 483 18,900 3,247 Level FlightAware ADS-B
Wed 06:15:58 AM 40.1100 -83.6590 308° West 446 513 23,500 5,082 Climbing FlightAware ADS-B
Wed 06:16:43 AM 40.1680 -83.7590 307° West 444 511 26,100 3,318 Climbing FlightAware ADS-B
Wed 06:17:23 AM 40.2160 -83.8410 307° West 439 505 28,200 2,850 Climbing FlightAware ADS-B
Wed 06:18:03 AM 40.2660 -83.9270 307° West 438 504 29,900 1,271 Climbing FlightAware ADS-B
Wed 06:18:48 AM 40.3200 -84.0210 307° West 437 503 30,000 71 Climbing FlightAware ADS-B
Wed 06:19:28 AM 40.3690 -84.1080 306° West 436 502 30,000  Level FlightAware ADS-B
Wed 06:20:08 AM 40.4160 -84.1900 307° West 432 497 30,000  Level FlightAware ADS-B
Wed 06:20:53 AM 40.4720 -84.2860 308° West 430 495 30,000  Level FlightAware ADS-B
Wed 06:21:33 AM 40.5200 -84.3710 307° West 429 494 30,000  Level FlightAware ADS-B
Wed 06:22:13 AM 40.5670 -84.4530 307° West 429 494 30,000  Level FlightAware ADS-B
Wed 06:22:58 AM 40.6190 -84.5450 307° West 429 494 30,000  Level FlightAware ADS-B
Wed 06:23:38 AM 40.6670 -84.6290 307° West 430 495 30,000  Level FlightAware ADS-B
Wed 06:24:23 AM 40.7210 -84.7270 306° West 433 498 30,000  Level FlightAware ADS-B
Wed 06:25:03 AM 40.7670 -84.8090 307° West 432 497 30,000  Level FlightAware ADS-B
Wed 06:25:48 AM 40.8070 -84.9140 297° West 423 487 30,000  Level FlightAware ADS-B
Wed 06:26:28 AM 40.8360 -85.0040 293° West 423 487 30,000  Level FlightAware ADS-B
Wed 06:27:13 AM 40.8730 -85.1170 293° West 421 484 30,000 -353 Level FlightAware ADS-B
Wed 06:27:53 AM 40.9020 -85.2070 293° West 425 489 29,500 -1,120 Descending FlightAware ADS-B
Wed 06:28:28 AM 40.9300 -85.2930 293° West 446 513 28,600 -1,200 Descending FlightAware ADS-B
Wed 06:29:18 AM 40.9740 -85.4270 294° West 465 535 27,800 -1,200 Descending FlightAware ADS-B
Wed 06:29:58 AM 41.0070 -85.5310 293° West 448 516 26,800 -2,475 Descending FlightAware ADS-B
Wed 06:30:38 AM 41.0400 -85.6310 294° West 439 505 24,500 -1,976 Descending FlightAware ADS-B
Wed 06:31:23 AM 41.0750 -85.7410 293° West 432 497 24,000 -353 Descending FlightAware ADS-B
Wed 06:32:03 AM 41.1060 -85.8370 293° West 434 499 24,000  Level FlightAware ADS-B
Wed 06:32:48 AM 41.1410 -85.9480 293° West 439 505 24,000 -282 Level FlightAware ADS-B
Wed 06:33:28 AM 41.1730 -86.0490 293° West 436 502 23,600 -825 Descending FlightAware ADS-B
Wed 06:34:08 AM 41.2030 -86.1450 293° West 433 498 22,900 -600 Descending FlightAware ADS-B
Wed 06:34:48 AM 41.2300 -86.2330 292° West 432 497 22,800 -635 Descending FlightAware ADS-B
Wed 06:35:33 AM 41.2680 -86.3520 293° West 422 486 22,000 -800 Descending FlightAware ADS-B
Wed 06:36:18 AM 41.3010 -86.4580 293° West 419 482 21,600 -1,553 Descending FlightAware ADS-B
Wed 06:36:58 AM 41.3310 -86.5550 292° West 408 470 19,800 -2,850 Descending FlightAware ADS-B
Wed 06:37:38 AM 41.3580 -86.6420 292° West 405 466 17,800 -2,471 Descending FlightAware ADS-B
Wed 06:38:23 AM 41.3910 -86.7490 292° West 403 464 16,300 -2,240 Descending FlightAware ADS-B
Wed 06:38:53 AM 41.4130 -86.8190 293° West 393 452 15,000 -2,400 Descending FlightAware ADS-B
Wed 06:39:33 AM 41.4390 -86.9040 292° West 373 429 13,500 -2,259 Descending FlightAware ADS-B
Wed 06:40:18 AM 41.4680 -86.9990 292° West 350 403 11,800 -1,553 Descending FlightAware ADS-B
Wed 06:40:58 AM 41.4910 -87.0770 292° West 339 390 11,300 -375 Descending FlightAware ADS-B
Wed 06:41:38 AM 41.5160 -87.1560 293° West 343 395 11,300  Level FlightAware ADS-B
Wed 06:42:23 AM 41.5600 -87.2300 308° West 349 402 11,300  Level FlightAware ADS-B
Wed 06:43:03 AM 41.6000 -87.2910 311° West 351 404 11,300  Level FlightAware ADS-B
Wed 06:43:48 AM 41.6470 -87.3660 310° West 355 409 11,300  Level FlightAware ADS-B
Wed 06:44:28 AM 41.6950 -87.4380 312° West 352 405 11,300  Level FlightAware ADS-B
Wed 06:45:08 AM 41.7360 -87.5040 310° West 354 407 11,300  Level FlightAware ADS-B
Wed 06:45:53 AM 41.7830 -87.5810 309° West 357 411 11,300 -424 Level FlightAware ADS-B
Wed 06:46:33 AM 41.8210 -87.6430 309° West 302 348 10,700 -1,200 Descending FlightAware ADS-B
Wed 06:47:03 AM 41.8480 -87.6860 310° West 297 342 9,900 -1,527 Descending FlightAware ADS-B
Wed 06:47:28 AM 41.8680 -87.7200 308° West 294 338 9,300 -1,636 Descending FlightAware ADS-B
Wed 06:47:58 AM 41.8950 -87.7650 309° West 291 335 8,400 -1,867 Descending FlightAware ADS-B
Wed 06:48:13 AM 41.9030 -87.7890 294° West 288 331 7,900 -1,500 Descending FlightAware ADS-B
Wed 06:48:38 AM 41.9130 -87.8290 289° West 284 327 7,400 -655 Descending FlightAware ADS-B
Wed 06:49:08 AM 41.9270 -87.8790 291° West 281 323 7,300 -100 Descending FlightAware ADS-B
Wed 06:49:38 AM 41.9390 -87.9260 289° West 252 290 7,300  Level FlightAware ADS-B
Wed 06:50:03 AM 41.9500 -87.9640 291° West 240 276 7,300  Level FlightAware ADS-B
Wed 06:50:18 AM 41.9550 -87.9830 289° West 239 275 7,300  Level FlightAware ADS-B
Wed 06:50:48 AM 41.9670 -88.0260 291° West 239 275 7,300 -150 Level FlightAware ADS-B
Wed 06:50:58 AM 41.9730 -88.0390 302° West 239 275 7,200 -1,650 Descending FlightAware ADS-B
Wed 06:51:28 AM 41.9940 -88.0730 310° West 239 275 6,200 -1,700 Descending FlightAware ADS-B
Wed 06:51:58 AM 42.0150 -88.1050 311° West 233 268 5,500 -1,418 Descending FlightAware ADS-B
Wed 06:52:23 AM 42.0330 -88.1340 310° West 231 266 4,900 -1,350 Descending FlightAware ADS-B
Wed 06:52:38 AM 42.0430 -88.1490 312° West 227 261 4,600 -800 Descending FlightAware ADS-B
Wed 06:53:08 AM 42.0630 -88.1800 311° West 208 239 4,300 -327 Descending FlightAware ADS-B
Wed 06:53:33 AM 42.0810 -88.2020 318° Northwest 198 228 4,300  Level FlightAware ADS-B
Wed 06:53:43 AM 42.0880 -88.2040 348° North 201 231 4,300  Level FlightAware ADS-B
Wed 06:54:03 AM 42.1050 -88.1930 26° Northeast 206 237 4,300 -600 Level FlightAware ADS-B
Wed 06:54:23 AM 42.1200 -88.1780 37° Northeast 204 235 3,900 -1,200 Descending FlightAware ADS-B
Wed 06:54:43 AM 42.1310 -88.1560 56° Northeast 199 229 3,500 -857 Descending FlightAware ADS-B
Wed 06:54:58 AM 42.1290 -88.1400 100° East 191 220 3,400 -400 Descending FlightAware ADS-B
Wed 06:55:13 AM 42.1250 -88.1210 106° East 185 213 3,300 -150 Descending FlightAware ADS-B
Wed 06:55:38 AM 42.1190 -88.0950 107° East 182 209 3,300  Level FlightAware ADS-B
Wed 06:56:08 AM 42.1070 -88.0650 118° Southeast 180 207 3,300  Level FlightAware ADS-B
Wed 06:56:38 AM 42.0890 -88.0440 139° Southeast 178 205 3,300 -150 Level FlightAware ADS-B
Wed 06:56:48 AM 42.0820 -88.0370 143° Southeast 158 182 3,200 -600 Descending FlightAware ADS-B
Wed 06:57:18 AM 42.0670 -88.0190 138° Southeast 132 152 2,900 -600 Descending FlightAware ADS-B
Wed 06:57:48 AM 42.0540 -88.0040 139° Southeast 132 152 2,600 -764 Descending FlightAware ADS-B
Wed 06:58:13 AM 42.0410 -87.9900 141° Southeast 131 151 2,200 -764 Descending FlightAware ADS-B
Wed 06:58:43 AM 42.0270 -87.9740 140° Southeast 129 148 1,900 -667 Descending FlightAware ADS-B
Wed 06:58:58 AM 42.0200 -87.9670 143° Southeast 129 148 1,700 -600 Descending FlightAware ADS-B
Wed 06:59:23 AM 42.0090 -87.9550 141° Southeast 127 146 1,500 -667 Descending FlightAware ADS-B
Wed 06:59:43 AM 42.0010 -87.9450 137° Southeast 127 146 1,200 -720 Descending FlightAware ADS-B
Wed 07:00:13 AM 41.9880 -87.9310 141° Southeast 128 147 900 -600 Descending FlightAware ADS-B

Login

Don't have an account? Register now (free) for customized features, flight alerts, and more!